Terminal Aerodrome Forecast
Issued by NWS

Home | Current Version | Previous Version | Text Only | Print | Product List | Glossary On
Versions: 1 2 3 4 5 6 7 8 9 10 11 12 13 14
000
FTUS46 KMTR 290538
TAFOAK
TAF
KOAK 290538Z 2906/3012 31008KT P6SM FEW006 FEW180
     FM291100 30005KT P6SM OVC006
     FM291700 30009KT P6SM FEW008
     FM292200 30016KT P6SM FEW010
     FM300300 30010KT P6SM FEW008
     FM300800 31006KT P6SM OVC008=

USA.gov is the U.S. government's official web portal to all federal, state and local government web resources and services.